sensor_id;sensor_type;location;lat;lon;timestamp;pressure;altitude;pressure_sealevel;temperature;humidity
71716;BME280;59568;52.128;5.434;2023-04-08T00:01:16;102428.25;;;7.27;100.00
71716;BME280;59568;52.128;5.434;2023-04-08T00:03:43;102423.03;;;7.27;100.00
71716;BME280;59568;52.128;5.434;2023-04-08T00:06:10;102428.44;;;7.25;100.00
71716;BME280;59568;52.128;5.434;2023-04-08T00:08:37;102433.09;;;7.23;100.00
71716;BME280;59568;52.128;5.434;2023-04-08T00:11:04;102433.88;;;7.24;100.00
71716;BME280;59568;52.128;5.434;2023-04-08T00:13:32;102429.00;;;7.15;100.00
71716;BME280;59568;52.128;5.434;2023-04-08T00:15:58;102437.56;;;7.16;100.00
71716;BME280;59568;52.128;5.434;2023-04-08T00:18:25;102432.38;;;7.16;100.00
71716;BME280;59568;52.128;5.434;2023-04-08T00:20:52;102439.97;;;7.17;100.00
71716;BME280;59568;52.128;5.434;2023-04-08T00:23:19;102431.38;;;7.17;100.00
71716;BME280;59568;52.128;5.434;2023-04-08T00:25:47;102429.56;;;7.17;100.00
71716;BME280;59568;52.128;5.434;2023-04-08T00:28:13;102432.72;;;7.19;100.00
71716;BME280;59568;52.128;5.434;2023-04-08T00:30:40;102437.34;;;7.17;100.00
71716;BME280;59568;52.128;5.434;2023-04-08T00:33:07;102428.78;;;7.17;100.00
71716;BME280;59568;52.128;5.434;2023-04-08T00:35:34;102434.97;;;7.16;100.00
71716;BME280;59568;52.128;5.434;2023-04-08T00:38:01;102428.88;;;7.10;100.00
71716;BME280;59568;52.128;5.434;2023-04-08T00:40:28;102434.94;;;7.04;100.00
71716;BME280;59568;52.128;5.434;2023-04-08T00:42:56;102446.00;;;6.99;100.00
71716;BME280;59568;52.128;5.434;2023-04-08T00:45:23;102444.66;;;6.97;100.00
71716;BME280;59568;52.128;5.434;2023-04-08T00:47:50;102448.25;;;6.96;100.00
71716;BME280;59568;52.128;5.434;2023-04-08T00:50:18;102447.47;;;6.95;100.00
71716;BME280;59568;52.128;5.434;2023-04-08T00:52:46;102446.69;;;6.95;100.00
71716;BME280;59568;52.128;5.434;2023-04-08T00:55:12;102446.91;;;6.93;100.00
71716;BME280;59568;52.128;5.434;2023-04-08T00:57:39;102445.97;;;6.88;100.00
71716;BME280;59568;52.128;5.434;2023-04-08T01:00:07;102450.16;;;6.89;100.00
71716;BME280;59568;52.128;5.434;2023-04-08T01:02:46;102452.31;;;6.92;100.00
71716;BME280;59568;52.128;5.434;2023-04-08T01:08:07;102459.09;;;6.93;100.00
71716;BME280;59568;52.128;5.434;2023-04-08T01:10:36;102457.97;;;6.89;100.00
71716;BME280;59568;52.128;5.434;2023-04-08T01:13:07;102458.63;;;6.84;100.00
71716;BME280;59568;52.128;5.434;2023-04-08T01:15:36;102457.69;;;6.78;100.00
71716;BME280;59568;52.128;5.434;2023-04-08T01:18:10;102456.97;;;6.71;100.00
71716;BME280;59568;52.128;5.434;2023-04-08T01:20:39;102456.03;;;6.66;100.00
71716;BME280;59568;52.128;5.434;2023-04-08T01:23:19;102447.91;;;6.62;100.00
71716;BME280;59568;52.128;5.434;2023-04-08T01:25:51;102463.25;;;6.64;100.00
71716;BME280;59568;52.128;5.434;2023-04-08T01:28:19;102455.34;;;6.58;100.00
71716;BME280;59568;52.128;5.434;2023-04-08T01:30:48;102457.56;;;6.55;100.00
71716;BME280;59568;52.128;5.434;2023-04-08T01:33:16;102455.56;;;6.57;100.00
71716;BME280;59568;52.128;5.434;2023-04-08T01:35:44;102462.34;;;6.58;100.00
71716;BME280;59568;52.128;5.434;2023-04-08T01:38:14;102458.16;;;6.57;100.00
71716;BME280;59568;52.128;5.434;2023-04-08T01:40:42;102458.16;;;6.57;100.00
71716;BME280;59568;52.128;5.434;2023-04-08T01:43:12;102462.34;;;6.58;100.00
71716;BME280;59568;52.128;5.434;2023-04-08T01:45:42;102462.75;;;6.55;100.00
71716;BME280;59568;52.128;5.434;2023-04-08T01:48:11;102466.81;;;6.51;100.00
71716;BME280;59568;52.128;5.434;2023-04-08T01:50:40;102462.63;;;6.50;100.00
71716;BME280;59568;52.128;5.434;2023-04-08T01:53:09;102469.97;;;6.53;100.00
71716;BME280;59568;52.128;5.434;2023-04-08T01:55:37;102467.59;;;6.51;100.00
71716;BME280;59568;52.128;5.434;2023-04-08T01:58:06;102469.97;;;6.53;100.00
71716;BME280;59568;52.128;5.434;2023-04-08T02:00:35;102475.38;;;6.51;100.00
71716;BME280;59568;52.128;5.434;2023-04-08T02:03:04;102471.44;;;6.49;100.00
71716;BME280;59568;52.128;5.434;2023-04-08T02:05:33;102469.03;;;6.47;100.00
71716;BME280;59568;52.128;5.434;2023-04-08T02:07:59;102469.41;;;6.51;100.00
71716;BME280;59568;52.128;5.434;2023-04-08T02:10:26;102466.81;;;6.51;100.00
71716;BME280;59568;52.128;5.434;2023-04-08T02:12:53;102451.66;;;6.48;100.00
71716;BME280;59568;52.128;5.434;2023-04-08T02:15:21;102460.69;;;6.45;100.00
71716;BME280;59568;52.128;5.434;2023-04-08T02:17:54;102463.28;;;6.45;100.00
71716;BME280;59568;52.128;5.434;2023-04-08T02:20:37;102465.66;;;6.47;100.00
71716;BME280;59568;52.128;5.434;2023-04-08T02:23:16;102465.66;;;6.47;100.00
71716;BME280;59568;52.128;5.434;2023-04-08T02:25:46;102472.09;;;6.44;100.00
71716;BME280;59568;52.128;5.434;2023-04-08T02:28:14;102477.91;;;6.39;100.00
71716;BME280;59568;52.128;5.434;2023-04-08T02:30:47;102471.16;;;6.38;100.00
71716;BME280;59568;52.128;5.434;2023-04-08T02:33:18;102482.53;;;6.37;100.00
71716;BME280;59568;52.128;5.434;2023-04-08T02:35:49;102474.16;;;6.35;100.00
71716;BME280;59568;52.128;5.434;2023-04-08T02:38:17;102466.81;;;6.32;100.00
71716;BME280;59568;52.128;5.434;2023-04-08T02:40:43;102477.78;;;6.34;100.00
71716;BME280;59568;52.128;5.434;2023-04-08T02:43:10;102475.41;;;6.33;100.00
71716;BME280;59568;52.128;5.434;2023-04-08T02:45:40;102488.00;;;6.29;100.00
71716;BME280;59568;52.128;5.434;2023-04-08T02:48:07;102481.25;;;6.28;100.00
71716;BME280;59568;52.128;5.434;2023-04-08T02:50:35;102483.03;;;6.28;100.00
71716;BME280;59568;52.128;5.434;2023-04-08T02:53:02;102476.25;;;6.27;100.00
71716;BME280;59568;52.128;5.434;2023-04-08T02:55:29;102487.88;;;6.24;100.00
71716;BME280;59568;52.128;5.434;2023-04-08T02:57:56;102489.44;;;6.25;100.00
71716;BME280;59568;52.128;5.434;2023-04-08T03:00:23;102489.31;;;6.20;100.00
71716;BME280;59568;52.128;5.434;2023-04-08T03:02:50;102494.13;;;6.16;100.00
71716;BME280;59568;52.128;5.434;2023-04-08T03:05:17;102490.97;;;6.14;100.00
71716;BME280;59568;52.128;5.434;2023-04-08T03:07:44;102501.53;;;6.13;100.00
71716;BME280;59568;52.128;5.434;2023-04-08T03:10:11;102495.97;;;6.09;100.00
71716;BME280;59568;52.128;5.434;2023-04-08T03:12:38;102502.41;;;6.07;100.00
71716;BME280;59568;52.128;5.434;2023-04-08T03:15:05;102499.63;;;6.02;100.00
71716;BME280;59568;52.128;5.434;2023-04-08T03:17:32;102496.47;;;5.99;100.00
71716;BME280;59568;52.128;5.434;2023-04-08T03:20:01;102500.69;;;5.94;100.00
71716;BME280;59568;52.128;5.434;2023-04-08T03:22:30;102500.72;;;5.87;100.00
71716;BME280;59568;52.128;5.434;2023-04-08T03:24:57;102493.75;;;5.88;100.00
71716;BME280;59568;52.128;5.434;2023-04-08T03:27:24;102491.38;;;5.86;100.00
71716;BME280;59568;52.128;5.434;2023-04-08T03:29:51;102498.56;;;5.84;100.00
71716;BME280;59568;52.128;5.434;2023-04-08T03:32:19;102495.97;;;5.84;100.00
71716;BME280;59568;52.128;5.434;2023-04-08T03:34:45;102487.41;;;5.84;100.00
71716;BME280;59568;52.128;5.434;2023-04-08T03:37:12;102496.97;;;5.83;100.00
71716;BME280;59568;52.128;5.434;2023-04-08T03:39:39;102501.00;;;5.79;100.00
71716;BME280;59568;52.128;5.434;2023-04-08T03:42:06;102492.44;;;5.78;100.00
71716;BME280;59568;52.128;5.434;2023-04-08T03:44:32;102501.44;;;5.76;100.00
71716;BME280;59568;52.128;5.434;2023-04-08T03:46:59;102501.44;;;5.76;100.00
71716;BME280;59568;52.128;5.434;2023-04-08T03:49:26;102499.63;;;5.76;100.00
71716;BME280;59568;52.128;5.434;2023-04-08T03:51:53;102502.81;;;5.78;100.00
71716;BME280;59568;52.128;5.434;2023-04-08T03:54:19;102499.84;;;5.75;100.00
71716;BME280;59568;52.128;5.434;2023-04-08T03:56:48;102507.81;;;5.73;100.00
71716;BME280;59568;52.128;5.434;2023-04-08T03:59:15;102509.84;;;5.71;100.00
71716;BME280;59568;52.128;5.434;2023-04-08T04:01:42;102509.25;;;5.69;100.00
71716;BME280;59568;52.128;5.434;2023-04-08T04:04:08;102518.84;;;5.69;100.00
71716;BME280;59568;52.128;5.434;2023-04-08T04:06:36;102520.84;;;5.67;100.00
71716;BME280;59568;52.128;5.434;2023-04-08T04:09:03;102522.66;;;5.66;100.00
71716;BME280;59568;52.128;5.434;2023-04-08T04:11:30;102523.50;;;5.60;100.00
71716;BME280;59568;52.128;5.434;2023-04-08T04:13:56;102518.78;;;5.50;100.00
71716;BME280;59568;52.128;5.434;2023-04-08T04:16:23;102532.97;;;5.41;100.00
71716;BME280;59568;52.128;5.434;2023-04-08T04:18:51;102526.63;;;5.37;100.00
71716;BME280;59568;52.128;5.434;2023-04-08T04:21:19;102533.59;;;5.36;100.00
71716;BME280;59568;52.128;5.434;2023-04-08T04:23:46;102547.19;;;5.32;100.00
71716;BME280;59568;52.128;5.434;2023-04-08T04:26:13;102543.44;;;5.28;100.00
71716;BME280;59568;52.128;5.434;2023-04-08T04:28:40;102543.25;;;5.23;100.00
71716;BME280;59568;52.128;5.434;2023-04-08T04:31:07;102552.03;;;5.22;100.00
71716;BME280;59568;52.128;5.434;2023-04-08T04:33:34;102552.03;;;5.22;100.00
71716;BME280;59568;52.128;5.434;2023-04-08T04:36:01;102555.81;;;5.19;100.00
71716;BME280;59568;52.128;5.434;2023-04-08T04:38:28;102558.03;;;5.15;100.00
71716;BME280;59568;52.128;5.434;2023-04-08T04:40:55;102555.47;;;5.09;100.00
71716;BME280;59568;52.128;5.434;2023-04-08T04:43:22;102558.50;;;4.99;100.00
71716;BME280;59568;52.128;5.434;2023-04-08T04:45:48;102562.91;;;4.92;100.00
71716;BME280;59568;52.128;5.434;2023-04-08T04:48:15;102571.06;;;4.89;100.00
71716;BME280;59568;52.128;5.434;2023-04-08T04:50:42;102564.72;;;4.85;100.00
71716;BME280;59568;52.128;5.434;2023-04-08T04:53:09;102571.28;;;4.80;100.00
71716;BME280;59568;52.128;5.434;2023-04-08T04:55:36;102574.91;;;4.79;100.00
71716;BME280;59568;52.128;5.434;2023-04-08T04:58:04;102576.13;;;4.77;100.00
71716;BME280;59568;52.128;5.434;2023-04-08T05:00:31;102582.06;;;4.77;100.00
71716;BME280;59568;52.128;5.434;2023-04-08T05:02:58;102584.06;;;4.75;100.00
71716;BME280;59568;52.128;5.434;2023-04-08T05:05:25;102581.28;;;4.70;100.00
71716;BME280;59568;52.128;5.434;2023-04-08T05:07:52;102586.47;;;4.64;100.00
71716;BME280;59568;52.128;5.434;2023-04-08T05:10:19;102591.69;;;4.57;100.00
71716;BME280;59568;52.128;5.434;2023-04-08T05:12:46;102586.09;;;4.53;100.00
71716;BME280;59568;52.128;5.434;2023-04-08T05:15:13;102587.09;;;4.52;100.00
71716;BME280;59568;52.128;5.434;2023-04-08T05:17:40;102589.69;;;4.52;100.00
71716;BME280;59568;52.128;5.434;2023-04-08T05:20:07;102595.66;;;4.53;100.00
71716;BME280;59568;52.128;5.434;2023-04-08T05:22:34;102594.69;;;4.47;99.75
71716;BME280;59568;52.128;5.434;2023-04-08T05:25:01;102600.25;;;4.44;99.52
71716;BME280;59568;52.128;5.434;2023-04-08T05:27:27;102604.22;;;4.40;100.00
71716;BME280;59568;52.128;5.434;2023-04-08T05:29:54;102603.81;;;4.36;99.61
71716;BME280;59568;52.128;5.434;2023-04-08T05:32:21;102598.03;;;4.34;99.79
71716;BME280;59568;52.128;5.434;2023-04-08T05:34:48;102603.22;;;4.34;99.68
71716;BME280;59568;52.128;5.434;2023-04-08T05:37:15;102606.22;;;4.38;99.51
71716;BME280;59568;52.128;5.434;2023-04-08T05:39:42;102611.78;;;4.42;99.33
71716;BME280;59568;52.128;5.434;2023-04-08T05:42:08;102602.44;;;4.40;99.26
71716;BME280;59568;52.128;5.434;2023-04-08T05:44:36;102600.66;;;4.41;98.79
71716;BME280;59568;52.128;5.434;2023-04-08T05:47:04;102616.97;;;4.42;98.93
71716;BME280;59568;52.128;5.434;2023-04-08T05:49:32;102609.81;;;4.44;98.73
71716;BME280;59568;52.128;5.434;2023-04-08T05:51:59;102610.00;;;4.49;98.80
71716;BME280;59568;52.128;5.434;2023-04-08T05:54:26;102616.38;;;4.53;98.77
71716;BME280;59568;52.128;5.434;2023-04-08T05:56:53;102620.94;;;4.57;98.49
71716;BME280;59568;52.128;5.434;2023-04-08T05:59:20;102612.38;;;4.64;98.40
71716;BME280;59568;52.128;5.434;2023-04-08T06:01:46;102621.09;;;4.83;99.26
71716;BME280;59568;52.128;5.434;2023-04-08T06:04:14;102618.16;;;5.76;100.00
71716;BME280;59568;52.128;5.434;2023-04-08T06:06:43;102615.41;;;6.96;98.40
71716;BME280;59568;52.128;5.434;2023-04-08T06:09:10;102612.50;;;7.95;94.86
71716;BME280;59568;52.128;5.434;2023-04-08T06:11:36;102614.59;;;8.40;90.47
71716;BME280;59568;52.128;5.434;2023-04-08T06:14:03;102617.66;;;8.73;87.81
71716;BME280;59568;52.128;5.434;2023-04-08T06:16:30;102611.97;;;9.28;85.47
71716;BME280;59568;52.128;5.434;2023-04-08T06:18:57;102618.34;;;9.49;82.43
71716;BME280;59568;52.128;5.434;2023-04-08T06:21:24;102616.28;;;9.80;81.32
71716;BME280;59568;52.128;5.434;2023-04-08T06:23:51;102622.94;;;10.05;79.43
71716;BME280;59568;52.128;5.434;2023-04-08T06:26:18;102630.06;;;10.26;78.18
71716;BME280;59568;52.128;5.434;2023-04-08T06:28:45;102630.53;;;10.23;76.75
71716;BME280;59568;52.128;5.434;2023-04-08T06:31:12;102634.75;;;10.41;76.53
71716;BME280;59568;52.128;5.434;2023-04-08T06:33:39;102647.13;;;10.68;75.13
71716;BME280;59568;52.128;5.434;2023-04-08T06:36:06;102640.06;;;10.68;73.51
71716;BME280;59568;52.128;5.434;2023-04-08T06:38:33;102642.97;;;10.89;73.12
71716;BME280;59568;52.128;5.434;2023-04-08T06:41:02;102653.59;;;11.04;72.40
71716;BME280;59568;52.128;5.434;2023-04-08T06:43:29;102658.97;;;11.14;71.74
71716;BME280;59568;52.128;5.434;2023-04-08T06:45:56;102662.75;;;11.02;71.25
71716;BME280;59568;52.128;5.434;2023-04-08T06:48:24;102660.78;;;10.92;70.52
71716;BME280;59568;52.128;5.434;2023-04-08T06:50:56;102662.00;;;10.84;70.53
71716;BME280;59568;52.128;5.434;2023-04-08T06:53:24;102678.84;;;10.37;69.83
71716;BME280;59568;52.128;5.434;2023-04-08T06:55:51;102680.31;;;9.54;71.36
71716;BME280;59568;52.128;5.434;2023-04-08T06:58:18;102670.19;;;9.05;73.51
71716;BME280;59568;52.128;5.434;2023-04-08T07:00:45;102678.72;;;8.89;74.51
71716;BME280;59568;52.128;5.434;2023-04-08T07:03:13;102672.28;;;8.56;74.95
71716;BME280;59568;52.128;5.434;2023-04-08T07:05:40;102686.97;;;8.38;76.45
71716;BME280;59568;52.128;5.434;2023-04-08T07:08:08;102689.44;;;8.22;76.82
71716;BME280;59568;52.128;5.434;2023-04-08T07:10:35;102688.13;;;8.00;77.23
71716;BME280;59568;52.128;5.434;2023-04-08T07:13:02;102689.25;;;8.05;78.09
71716;BME280;59568;52.128;5.434;2023-04-08T07:15:29;102695.84;;;8.07;78.34
71716;BME280;59568;52.128;5.434;2023-04-08T07:17:56;102690.97;;;7.99;78.31
71716;BME280;59568;52.128;5.434;2023-04-08T07:20:24;102697.63;;;7.95;78.62
71716;BME280;59568;52.128;5.434;2023-04-08T07:22:52;102704.06;;;7.92;78.70
71716;BME280;59568;52.128;5.434;2023-04-08T07:25:19;102703.41;;;7.97;78.19
71716;BME280;59568;52.128;5.434;2023-04-08T07:27:46;102709.19;;;7.99;78.40
71716;BME280;59568;52.128;5.434;2023-04-08T07:30:13;102707.72;;;8.03;78.73
71716;BME280;59568;52.128;5.434;2023-04-08T07:32:39;102719.34;;;8.00;78.61
71716;BME280;59568;52.128;5.434;2023-04-08T07:35:06;102713.16;;;8.02;78.51
71716;BME280;59568;52.128;5.434;2023-04-08T07:37:33;102718.47;;;8.07;77.97
71716;BME280;59568;52.128;5.434;2023-04-08T07:40:00;102716.78;;;8.12;78.67
71716;BME280;59568;52.128;5.434;2023-04-08T07:42:27;102723.97;;;8.17;78.38
71716;BME280;59568;52.128;5.434;2023-04-08T07:44:54;102721.22;;;8.12;78.27
71716;BME280;59568;52.128;5.434;2023-04-08T07:47:21;102716.00;;;8.12;78.34
71716;BME280;59568;52.128;5.434;2023-04-08T07:49:48;102716.03;;;8.24;78.69
71716;BME280;59568;52.128;5.434;2023-04-08T07:52:15;102721.28;;;8.35;78.45
71716;BME280;59568;52.128;5.434;2023-04-08T07:54:43;102725.31;;;8.50;79.00
71716;BME280;59568;52.128;5.434;2023-04-08T07:57:10;102723.94;;;8.71;79.13
71716;BME280;59568;52.128;5.434;2023-04-08T07:59:37;102726.56;;;8.83;78.54
71716;BME280;59568;52.128;5.434;2023-04-08T08:02:04;102719.44;;;8.90;78.56
71716;BME280;59568;52.128;5.434;2023-04-08T08:04:31;102723.19;;;8.94;77.27
71716;BME280;59568;52.128;5.434;2023-04-08T08:06:58;102718.97;;;8.93;76.66
71716;BME280;59568;52.128;5.434;2023-04-08T08:09:25;102729.53;;;8.98;76.35
71716;BME280;59568;52.128;5.434;2023-04-08T08:11:52;102730.31;;;9.10;76.63
71716;BME280;59568;52.128;5.434;2023-04-08T08:14:19;102727.00;;;9.27;76.43
71716;BME280;59568;52.128;5.434;2023-04-08T08:16:47;102725.50;;;9.31;76.81
71716;BME280;59568;52.128;5.434;2023-04-08T08:19:15;102726.28;;;9.43;76.17
71716;BME280;59568;52.128;5.434;2023-04-08T08:21:42;102728.88;;;9.43;75.45
71716;BME280;59568;52.128;5.434;2023-04-08T08:24:08;102723.63;;;9.55;74.71
71716;BME280;59568;52.128;5.434;2023-04-08T08:26:35;102730.38;;;9.68;74.99
71716;BME280;59568;52.128;5.434;2023-04-08T08:29:03;102730.50;;;9.73;74.74
71716;BME280;59568;52.128;5.434;2023-04-08T08:31:30;102740.97;;;9.90;75.61
71716;BME280;59568;52.128;5.434;2023-04-08T08:33:57;102740.38;;;9.99;74.39
71716;BME280;59568;52.128;5.434;2023-04-08T08:36:24;102740.00;;;10.08;74.02
71716;BME280;59568;52.128;5.434;2023-04-08T08:38:52;102737.25;;;10.14;74.37
71716;BME280;59568;52.128;5.434;2023-04-08T08:41:20;102736.00;;;10.17;73.45
71716;BME280;59568;52.128;5.434;2023-04-08T08:43:47;102740.59;;;10.27;74.61
71716;BME280;59568;52.128;5.434;2023-04-08T08:46:17;102749.03;;;10.46;74.60
71716;BME280;59568;52.128;5.434;2023-04-08T08:48:45;102745.00;;;10.55;74.23
71716;BME280;59568;52.128;5.434;2023-04-08T08:51:12;102742.44;;;10.60;73.48
71716;BME280;59568;52.128;5.434;2023-04-08T08:53:39;102745.06;;;10.60;72.63
71716;BME280;59568;52.128;5.434;2023-04-08T08:56:11;102750.94;;;10.67;72.52
71716;BME280;59568;52.128;5.434;2023-04-08T08:58:44;102755.19;;;10.90;72.77
71716;BME280;59568;52.128;5.434;2023-04-08T09:01:36;102755.47;;;11.11;72.29
71716;BME280;59568;52.128;5.434;2023-04-08T09:06:38;102754.75;;;11.37;71.95
71716;BME280;59568;52.128;5.434;2023-04-08T09:09:06;102754.09;;;11.47;71.20
71716;BME280;59568;52.128;5.434;2023-04-08T09:11:44;102758.09;;;11.55;71.26
71716;BME280;59568;52.128;5.434;2023-04-08T09:14:19;102761.63;;;11.66;70.96
71716;BME280;59568;52.128;5.434;2023-04-08T09:16:46;102756.41;;;11.66;70.46
71716;BME280;59568;52.128;5.434;2023-04-08T09:19:13;102761.69;;;11.71;70.17
71716;BME280;59568;52.128;5.434;2023-04-08T09:21:40;102763.16;;;11.84;68.64
71716;BME280;59568;52.128;5.434;2023-04-08T09:24:08;102761.53;;;11.83;68.21
71716;BME280;59568;52.128;5.434;2023-04-08T09:26:36;102763.22;;;11.89;69.18
71716;BME280;59568;52.128;5.434;2023-04-08T09:29:04;102767.22;;;11.96;68.90
71716;BME280;59568;52.128;5.434;2023-04-08T09:31:57;102762.06;;;12.07;69.26
71716;BME280;59568;52.128;5.434;2023-04-08T09:34:26;102768.63;;;12.04;67.79
71716;BME280;59568;52.128;5.434;2023-04-08T09:36:54;102772.53;;;12.02;67.33
71716;BME280;59568;52.128;5.434;2023-04-08T09:39:22;102771.78;;;12.06;67.25
71716;BME280;59568;52.128;5.434;2023-04-08T09:41:50;102773.19;;;12.19;67.64
71716;BME280;59568;52.128;5.434;2023-04-08T09:44:22;102775.41;;;12.32;68.44
71716;BME280;59568;52.128;5.434;2023-04-08T09:47:00;102765.97;;;12.64;69.08
71716;BME280;59568;52.128;5.434;2023-04-08T09:49:37;102771.22;;;12.64;67.50
71716;BME280;59568;52.128;5.434;2023-04-08T09:52:20;102773.84;;;12.64;66.29
71716;BME280;59568;52.128;5.434;2023-04-08T09:55:04;102771.41;;;12.57;65.79
71716;BME280;59568;52.128;5.434;2023-04-08T10:00:17;102777.69;;;12.88;65.60
71716;BME280;59568;52.128;5.434;2023-04-08T10:05:45;102777.63;;;12.78;65.71
71716;BME280;59568;52.128;5.434;2023-04-08T10:08:13;102767.47;;;12.92;65.25
71716;BME280;59568;52.128;5.434;2023-04-08T10:10:41;102770.16;;;13.07;64.85
71716;BME280;59568;52.128;5.434;2023-04-08T10:13:09;102762.88;;;13.19;63.57
71716;BME280;59568;52.128;5.434;2023-04-08T10:15:36;102759.91;;;13.01;63.10
71716;BME280;59568;52.128;5.434;2023-04-08T10:23:02;102758.69;;;13.24;61.52
71716;BME280;59568;52.128;5.434;2023-04-08T10:25:43;102758.16;;;13.16;61.61
71716;BME280;59568;52.128;5.434;2023-04-08T10:30:38;102751.50;;;13.62;61.52
71716;BME280;59568;52.128;5.434;2023-04-08T10:33:10;102757.06;;;13.86;61.12
71716;BME280;59568;52.128;5.434;2023-04-08T10:35:46;102758.44;;;14.09;59.40
71716;BME280;59568;52.128;5.434;2023-04-08T10:38:15;102761.34;;;14.23;59.30
71716;BME280;59568;52.128;5.434;2023-04-08T10:40:43;102760.53;;;14.22;59.44
71716;BME280;59568;52.128;5.434;2023-04-08T10:43:13;102762.13;;;14.18;59.31
71716;BME280;59568;52.128;5.434;2023-04-08T10:45:41;102767.38;;;14.08;57.89
71716;BME280;59568;52.128;5.434;2023-04-08T10:53:32;102755.53;;;14.26;59.32
71716;BME280;59568;52.128;5.434;2023-04-08T10:56:10;102757.91;;;14.43;60.16
71716;BME280;59568;52.128;5.434;2023-04-08T10:58:51;102753.94;;;14.50;58.10
71716;BME280;59568;52.128;5.434;2023-04-08T11:01:19;102754.25;;;14.49;58.35
71716;BME280;59568;52.128;5.434;2023-04-08T11:03:46;102750.53;;;14.50;58.00
71716;BME280;59568;52.128;5.434;2023-04-08T11:06:13;102753.97;;;14.45;57.40
71716;BME280;59568;52.128;5.434;2023-04-08T11:08:40;102747.94;;;14.60;57.13
71716;BME280;59568;52.128;5.434;2023-04-08T11:11:07;102739.47;;;14.78;58.12
71716;BME280;59568;52.128;5.434;2023-04-08T11:13:41;102750.75;;;15.00;56.93
71716;BME280;59568;52.128;5.434;2023-04-08T11:16:20;102748.34;;;15.08;56.28
71716;BME280;59568;52.128;5.434;2023-04-08T11:18:49;102746.69;;;15.23;55.15
71716;BME280;59568;52.128;5.434;2023-04-08T11:21:16;102754.63;;;15.12;53.65
71716;BME280;59568;52.128;5.434;2023-04-08T11:23:43;102742.03;;;15.04;55.16
71716;BME280;59568;52.128;5.434;2023-04-08T11:26:11;102747.03;;;15.06;54.90
71716;BME280;59568;52.128;5.434;2023-04-08T11:28:39;102744.63;;;15.14;52.61
71716;BME280;59568;52.128;5.434;2023-04-08T11:31:06;102743.53;;;15.21;53.29
71716;BME280;59568;52.128;5.434;2023-04-08T11:33:34;102743.63;;;15.05;50.01
71716;BME280;59568;52.128;5.434;2023-04-08T11:36:02;102748.88;;;15.05;50.76
71716;BME280;59568;52.128;5.434;2023-04-08T11:38:30;102742.59;;;15.01;50.79
71716;BME280;59568;52.128;5.434;2023-04-08T11:40:58;102754.72;;;14.92;50.05
71716;BME280;59568;52.128;5.434;2023-04-08T11:43:26;102745.78;;;14.83;49.47
71716;BME280;59568;52.128;5.434;2023-04-08T11:45:53;102748.44;;;14.77;50.27
71716;BME280;59568;52.128;5.434;2023-04-08T11:48:20;102746.03;;;14.91;48.18
71716;BME280;59568;52.128;5.434;2023-04-08T11:50:47;102746.56;;;14.88;50.75
71716;BME280;59568;52.128;5.434;2023-04-08T11:55:44;102750.25;;;14.82;49.16
71716;BME280;59568;52.128;5.434;2023-04-08T11:58:11;102747.31;;;15.04;49.77
71716;BME280;59568;52.128;5.434;2023-04-08T12:00:37;102749.22;;;14.83;46.93
71716;BME280;59568;52.128;5.434;2023-04-08T12:03:06;102755.81;;;14.75;47.89
71716;BME280;59568;52.128;5.434;2023-04-08T12:05:33;102741.09;;;14.69;47.43
71716;BME280;59568;52.128;5.434;2023-04-08T12:08:00;102754.72;;;14.97;46.99
71716;BME280;59568;52.128;5.434;2023-04-08T12:10:28;102745.22;;;15.01;45.45
71716;BME280;59568;52.128;5.434;2023-04-08T12:12:54;102743.88;;;14.98;44.10
71716;BME280;59568;52.128;5.434;2023-04-08T12:15:21;102742.03;;;15.04;44.72
71716;BME280;59568;52.128;5.434;2023-04-08T12:17:48;102751.72;;;15.19;44.72
71716;BME280;59568;52.128;5.434;2023-04-08T12:20:15;102749.28;;;15.38;46.22
71716;BME280;59568;52.128;5.434;2023-04-08T12:22:42;102749.84;;;15.30;43.16
71716;BME280;59568;52.128;5.434;2023-04-08T12:25:09;102748.28;;;15.18;43.74
71716;BME280;59568;52.128;5.434;2023-04-08T12:27:36;102745.69;;;15.08;43.15
71716;BME280;59568;52.128;5.434;2023-04-08T12:30:04;102755.41;;;15.23;42.45
71716;BME280;59568;52.128;5.434;2023-04-08T12:32:31;102750.44;;;15.11;42.77
71716;BME280;59568;52.128;5.434;2023-04-08T12:34:58;102743.63;;;15.05;42.71
71716;BME280;59568;52.128;5.434;2023-04-08T12:37:24;102739.41;;;15.04;41.35
71716;BME280;59568;52.128;5.434;2023-04-08T12:39:51;102743.06;;;15.08;40.57
71716;BME280;59568;52.128;5.434;2023-04-08T12:42:18;102741.53;;;14.87;39.17
71716;BME280;59568;52.128;5.434;2023-04-08T12:44:45;102739.47;;;14.84;40.46
71716;BME280;59568;52.128;5.434;2023-04-08T12:47:12;102743.69;;;14.74;42.04
71716;BME280;59568;52.128;5.434;2023-04-08T12:49:39;102743.16;;;14.77;42.69
71716;BME280;59568;52.128;5.434;2023-04-08T12:52:09;102745.78;;;14.83;41.80
71716;BME280;59568;52.128;5.434;2023-04-08T12:54:37;102738.91;;;14.97;42.79
71716;BME280;59568;52.128;5.434;2023-04-08T12:57:04;102742.53;;;15.11;42.29
71716;BME280;59568;52.128;5.434;2023-04-08T12:59:31;102745.69;;;15.13;42.01
71716;BME280;59568;52.128;5.434;2023-04-08T13:01:59;102744.69;;;14.99;41.80
71716;BME280;59568;52.128;5.434;2023-04-08T13:04:26;102742.31;;;14.97;42.32
71716;BME280;59568;52.128;5.434;2023-04-08T13:06:53;102741.78;;;15.06;43.67
71716;BME280;59568;52.128;5.434;2023-04-08T13:09:20;102745.34;;;15.35;44.28
71716;BME280;59568;52.128;5.434;2023-04-08T13:11:46;102743.94;;;15.53;43.33
71716;BME280;59568;52.128;5.434;2023-04-08T13:14:14;102749.78;;;15.40;43.83
71716;BME280;59568;52.128;5.434;2023-04-08T13:16:41;102744.38;;;15.16;45.04
71716;BME280;59568;52.128;5.434;2023-04-08T13:19:07;102749.97;;;14.99;47.27
71716;BME280;59568;52.128;5.434;2023-04-08T13:21:34;102749.19;;;14.93;46.34
71716;BME280;59568;52.128;5.434;2023-04-08T13:24:02;102746.44;;;15.19;47.11